Time;durP1;ratioP1;P1;durP2;ratioP2;P2;SDS_P1;SDS_P2;PMS_P1;PMS_P2;Temp;Humidity;BMP_temperature;BMP_pressure;BME280_temperature;BME280_humidity;BME280_pressure;Samples;Min_cycle;Max_cycle;Signal;HPM_P1;HPM_P2
2022/04/07 00:00:19;;;;;;;1.70;1.60;;;16.60;55.30;17.90;98680.00;;;;5046951;28;20249;-50
2022/04/07 00:02:45;;;;;;;1.60;1.50;;;16.60;55.30;17.80;98673.00;;;;5046989;28;20197;-50
2022/04/07 00:05:11;;;;;;;1.87;1.70;;;16.60;55.30;17.80;98670.00;;;;5047506;28;20285;-49
2022/04/07 00:07:37;;;;;;;1.43;1.33;;;16.60;55.30;17.80;98677.00;;;;5048716;28;20178;-49
2022/04/07 00:10:03;;;;;;;1.67;1.57;;;16.60;55.30;17.80;98685.00;;;;5046573;28;20224;-50
2022/04/07 00:12:31;;;;;;;2.20;1.63;;;16.70;55.30;17.80;98691.00;;;;5047039;28;20433;-50
2022/04/07 00:14:59;;;;;;;1.77;1.63;;;16.60;55.30;17.80;98693.00;;;;5045633;28;20186;-51
2022/04/07 00:17:25;;;;;;;1.73;1.63;;;16.60;55.20;17.80;98689.00;;;;5046508;28;20178;-50
2022/04/07 00:19:51;;;;;;;1.70;1.60;;;16.60;55.30;17.80;98683.00;;;;5046726;28;20222;-50
2022/04/07 00:22:17;;;;;;;1.70;1.60;;;16.60;55.30;17.80;98677.00;;;;5050605;28;20737;-50
2022/04/07 00:24:43;;;;;;;1.47;1.40;;;16.60;55.30;17.80;98672.00;;;;5045290;28;20914;-50
2022/04/07 00:27:09;;;;;;;1.60;1.50;;;16.60;55.20;17.80;98681.00;;;;5046240;28;20285;-51
2022/04/07 00:29:35;;;;;;;1.73;1.63;;;16.60;55.30;17.80;98660.00;;;;5046396;28;20190;-50
2022/04/07 00:32:04;;;;;;;1.70;1.60;;;16.60;55.30;17.80;98665.00;;;;5046534;28;20534;-50
2022/04/07 00:34:29;;;;;;;1.60;1.50;;;16.50;55.20;17.80;98669.00;;;;5046006;28;20182;-49
2022/04/07 00:36:55;;;;;;;1.70;1.60;;;16.50;55.20;17.80;98666.00;;;;5046013;28;20235;-49
2022/04/07 00:39:21;;;;;;;1.60;1.50;;;16.50;55.20;17.80;98657.00;;;;5046199;28;20220;-50
2022/04/07 00:41:46;;;;;;;1.60;1.50;;;16.50;55.20;17.80;98649.00;;;;5046218;28;20616;-50
2022/04/07 00:44:12;;;;;;;1.67;1.57;;;16.50;55.20;17.70;98646.00;;;;5046137;28;20174;-49
2022/04/07 00:46:38;;;;;;;1.60;1.50;;;16.50;55.30;17.70;98641.00;;;;5046100;28;20189;-50
2022/04/07 00:49:05;;;;;;;1.63;1.53;;;16.50;55.30;17.70;98636.00;;;;5045636;28;20167;-50
2022/04/07 00:51:30;;;;;;;1.70;1.60;;;16.50;55.50;17.70;98633.00;;;;5046032;28;20197;-49
2022/04/07 00:53:57;;;;;;;1.70;1.60;;;16.50;55.50;17.70;98627.00;;;;5028665;28;20275;-49
2022/04/07 00:56:25;;;;;;;1.50;1.40;;;16.50;55.40;17.70;98625.00;;;;5050322;28;20197;-51
2022/04/07 00:58:53;;;;;;;1.63;1.53;;;16.50;55.40;17.70;98632.00;;;;5028608;28;20174;-50
2022/04/07 01:01:20;;;;;;;1.57;1.47;;;16.40;55.40;17.50;98612.00;;;;5045643;28;20237;-49
2022/04/07 01:03:47;;;;;;;1.63;1.53;;;16.40;55.40;17.70;98606.00;;;;5058790;28;20189;-50
2022/04/07 01:06:13;;;;;;;1.70;1.60;;;16.40;55.30;17.70;98591.00;;;;5063979;28;20169;-48
2022/04/07 01:08:39;;;;;;;1.37;1.27;;;16.40;55.40;17.70;98609.00;;;;5048374;28;20696;-49
2022/04/07 01:11:04;;;;;;;1.60;1.50;;;16.40;55.40;17.70;98606.00;;;;5045847;28;20834;-49
2022/04/07 01:13:46;;;;;;;1.43;1.33;;;16.40;55.40;17.70;98596.00;;;;5045425;28;20170;-49
2022/04/07 01:16:12;;;;;;;1.30;1.20;;;16.40;55.40;17.60;98590.00;;;;5044236;28;20182;-54
2022/04/07 01:18:38;;;;;;;1.30;1.23;;;16.40;55.40;17.60;98587.00;;;;5049222;28;20170;-49
2022/04/07 01:21:04;;;;;;;1.13;1.13;;;16.40;55.40;17.60;98584.00;;;;5050111;28;20209;-50
2022/04/07 01:23:33;;;;;;;1.33;1.33;;;16.40;55.30;17.60;98575.00;;;;5050365;28;20182;-50
2022/04/07 01:25:59;;;;;;;1.50;1.40;;;16.40;55.40;17.60;98570.00;;;;5048399;28;20220;-50
2022/04/07 01:28:25;;;;;;;1.60;1.50;;;16.40;55.40;17.60;98568.00;;;;5032483;28;20166;-50
2022/04/07 01:30:51;;;;;;;1.50;1.40;;;16.40;55.50;17.60;98569.00;;;;5048624;28;20198;-49
2022/04/07 01:33:18;;;;;;;1.40;1.30;;;16.40;55.50;17.60;98562.00;;;;5049960;28;20671;-49
2022/04/07 01:35:44;;;;;;;1.40;1.30;;;16.30;55.40;17.60;98566.00;;;;5032341;28;20231;-50
2022/04/07 01:38:09;;;;;;;1.40;1.30;;;16.30;55.50;17.60;98557.00;;;;5048618;28;20170;-50
2022/04/07 01:40:35;;;;;;;1.40;1.30;;;16.30;55.40;17.60;98547.00;;;;5048339;28;20777;-50
2022/04/07 01:43:04;;;;;;;1.30;1.20;;;16.30;56.10;17.60;98546.00;;;;5031674;28;20198;-50
2022/04/07 01:45:31;;;;;;;1.23;1.23;;;16.30;55.40;17.60;98549.00;;;;5032055;28;20235;-51
2022/04/07 01:47:56;;;;;;;1.50;1.40;;;16.30;55.50;17.60;98536.00;;;;5032046;28;20232;-50
2022/04/07 01:50:23;;;;;;;1.50;1.40;;;16.30;55.50;17.60;98547.00;;;;5031913;28;20698;-49
2022/04/07 01:52:49;;;;;;;1.40;1.20;;;16.30;55.50;17.50;98477.00;;;;5031845;28;20174;-50
2022/04/07 01:55:15;;;;;;;1.27;1.23;;;16.30;55.50;17.50;98544.00;;;;5048383;28;20658;-49
2022/04/07 01:57:41;;;;;;;1.40;1.30;;;16.30;55.50;17.50;98542.00;;;;5049465;28;20279;-49
2022/04/07 02:00:07;;;;;;;1.47;1.37;;;16.30;55.40;17.50;98535.00;;;;5047837;28;20865;-49
2022/04/07 02:02:33;;;;;;;1.10;1.10;;;16.30;55.50;17.50;98535.00;;;;5049091;28;20205;-50
2022/04/07 02:05:00;;;;;;;1.47;1.37;;;16.30;55.50;17.50;98527.00;;;;5048985;28;20178;-49
2022/04/07 02:07:30;;;;;;;1.10;1.10;;;16.30;55.50;17.50;98523.00;;;;5048807;28;20209;-51
2022/04/07 02:09:56;;;;;;;1.43;1.33;;;16.30;55.50;17.50;98525.00;;;;5048759;28;20193;-50
2022/04/07 02:12:22;;;;;;;1.40;1.30;;;16.20;55.50;17.50;98514.00;;;;5049020;28;20178;-50
2022/04/07 02:14:48;;;;;;;1.60;1.50;;;16.20;55.50;17.50;98519.00;;;;5049257;28;20183;-50
2022/04/07 02:17:20;;;;;;;1.30;1.30;;;16.20;55.50;17.50;98513.00;;;;5051051;28;20197;-50
2022/04/07 02:19:51;;;;;;;1.00;1.00;;;16.30;55.50;17.50;98506.00;;;;5048820;28;20558;-50
2022/04/07 02:22:17;;;;;;;1.23;1.23;;;16.20;55.50;17.50;98499.00;;;;5048819;28;20198;-49
2022/04/07 02:24:43;;;;;;;1.10;1.10;;;16.20;55.50;17.50;98505.00;;;;5047692;28;20801;-50
2022/04/07 02:27:09;;;;;;;1.40;1.30;;;16.20;55.50;17.50;98500.00;;;;5048460;28;20170;-50
2022/04/07 02:29:35;;;;;;;1.30;1.20;;;16.20;55.50;17.50;98477.00;;;;5047975;28;20202;-51
2022/04/07 02:32:01;;;;;;;1.43;1.33;;;16.20;55.50;17.50;98500.00;;;;5048459;28;20210;-50
2022/04/07 02:34:26;;;;;;;1.03;1.03;;;16.20;55.50;17.50;98496.00;;;;5048553;28;20182;-50
2022/04/07 02:36:52;;;;;;;1.40;1.30;;;16.20;55.50;17.40;98495.00;;;;5048432;28;20208;-51
2022/04/07 02:39:18;;;;;;;1.00;1.00;;;16.20;55.50;17.40;98483.00;;;;5052184;28;20201;-50
2022/04/07 02:41:43;;;;;;;2.37;1.20;;;16.20;55.50;17.40;98480.00;;;;5056368;28;20702;-49
2022/04/07 02:44:09;;;;;;;1.00;1.00;;;16.20;55.50;17.40;98483.00;;;;5052684;28;20171;-50
2022/04/07 02:46:35;;;;;;;1.27;1.20;;;16.20;55.50;17.40;98468.00;;;;5048206;28;20245;-51
2022/04/07 02:49:01;;;;;;;1.10;1.10;;;16.20;55.50;17.40;98474.00;;;;5050636;28;20659;-50
2022/04/07 02:51:27;;;;;;;1.10;1.10;;;16.10;55.40;17.40;98475.00;;;;5049768;28;20796;-50
2022/04/07 02:53:57;;;;;;;1.17;1.17;;;16.20;55.40;17.40;98459.00;;;;5051175;28;20756;-51
2022/04/07 02:56:27;;;;;;;1.30;1.20;;;16.10;55.40;17.40;98454.00;;;;5048605;28;20726;-50
2022/04/07 02:58:53;;;;;;;1.00;1.00;;;16.10;55.40;17.40;98450.00;;;;5048529;28;20178;-50
2022/04/07 03:01:18;;;;;;;0.97;0.97;;;16.10;55.40;17.40;98432.00;;;;5047998;28;20271;-49
2022/04/07 03:03:44;;;;;;;1.23;1.13;;;16.10;55.40;17.40;98444.00;;;;5047117;28;20170;-50
2022/04/07 03:06:10;;;;;;;1.07;0.97;;;16.10;55.50;17.40;98435.00;;;;5048030;28;20835;-50
2022/04/07 03:08:35;;;;;;;1.07;1.07;;;16.10;55.40;17.40;98437.00;;;;5048156;28;20175;-50
2022/04/07 03:11:01;;;;;;;1.20;1.10;;;16.10;55.50;17.30;98430.00;;;;5047595;28;20229;-49
2022/04/07 03:13:27;;;;;;;1.33;1.10;;;16.00;55.40;17.30;98421.00;;;;5047859;28;20335;-50
2022/04/07 03:15:53;;;;;;;1.20;1.20;;;16.10;55.50;17.30;98427.00;;;;5049905;28;20170;-49
2022/04/07 03:18:19;;;;;;;1.00;1.00;;;16.10;55.50;17.30;98422.00;;;;5049324;28;20209;-51
2022/04/07 03:20:45;;;;;;;1.20;1.10;;;16.10;55.50;17.30;98414.00;;;;5047555;28;20194;-49
2022/04/07 03:23:11;;;;;;;1.27;1.17;;;16.10;55.50;17.30;98414.00;;;;5047694;28;20543;-49
2022/04/07 03:25:36;;;;;;;1.20;1.10;;;16.10;55.50;17.30;98421.00;;;;5047748;28;20190;-49
2022/04/07 03:28:04;;;;;;;2.67;1.20;;;16.00;55.50;17.30;98372.00;;;;5047577;28;20285;-49
2022/04/07 03:30:29;;;;;;;4.13;1.20;;;16.10;55.60;17.30;98416.00;;;;5047365;28;20826;-50
2022/04/07 03:32:55;;;;;;;1.77;1.33;;;16.10;55.90;17.30;98399.00;;;;5047613;28;20178;-50
2022/04/07 03:35:21;;;;;;;0.90;0.90;;;16.00;55.60;17.30;98385.00;;;;5047284;28;20182;-50
2022/04/07 03:37:46;;;;;;;2.00;1.20;;;15.90;55.50;17.30;98387.00;;;;5047288;28;20247;-50
2022/04/07 03:40:12;;;;;;;2.37;1.00;;;16.00;55.50;17.30;98372.00;;;;5046671;28;20728;-50
2022/04/07 03:42:38;;;;;;;2.43;1.30;;;16.00;55.60;17.30;98363.00;;;;5046986;28;20201;-49
2022/04/07 03:45:05;;;;;;;3.13;1.50;;;16.00;55.60;17.30;98356.00;;;;5047508;28;20733;-49
2022/04/07 03:47:31;;;;;;;4.50;1.20;;;16.00;55.50;17.30;98344.00;;;;5047226;28;20186;-49
2022/04/07 03:49:57;;;;;;;3.13;1.43;;;16.00;55.50;17.20;98283.00;;;;5047109;28;20198;-50
2022/04/07 03:52:23;;;;;;;2.77;1.23;;;15.90;55.50;17.20;98348.00;;;;5047054;28;20170;-51
2022/04/07 03:54:48;;;;;;;3.27;1.17;;;16.00;55.50;17.20;98331.00;;;;5046794;28;20684;-49
2022/04/07 03:57:14;;;;;;;2.77;1.23;;;16.00;55.50;17.20;98334.00;;;;5046965;28;20186;-49
2022/04/07 03:59:42;;;;;;;7.37;1.27;;;15.90;55.40;17.20;98330.00;;;;5046923;28;20202;-50
2022/04/07 04:02:08;;;;;;;1.77;1.07;;;15.90;55.30;17.20;98332.00;;;;5049937;28;20293;-50
2022/04/07 04:04:34;;;;;;;3.00;1.20;;;15.90;55.50;17.20;98319.00;;;;5058757;28;20231;-50
2022/04/07 04:07:00;;;;;;;2.10;0.97;;;15.90;55.50;17.20;98301.00;;;;5066069;28;20260;-51
2022/04/07 04:09:25;;;;;;;1.73;1.30;;;15.90;55.50;17.20;98302.00;;;;5071304;28;20189;-49
2022/04/07 04:11:52;;;;;;;2.60;1.10;;;15.90;55.50;17.10;98287.00;;;;5079425;28;20200;-50
2022/04/07 04:14:18;;;;;;;2.47;1.20;;;15.90;55.50;17.10;98295.00;;;;5075585;28;20740;-50
2022/04/07 04:16:44;;;;;;;3.43;1.27;;;15.90;55.60;17.10;98274.00;;;;5065054;28;20178;-49
2022/04/07 04:19:10;;;;;;;2.50;1.37;;;15.90;55.50;17.10;98278.00;;;;5066292;28;20178;-49
2022/04/07 04:21:36;;;;;;;2.63;1.30;;;15.90;55.50;17.10;98260.00;;;;5065071;28;20197;-49
2022/04/07 04:24:02;;;;;;;1.87;1.10;;;15.80;55.40;17.10;98262.00;;;;5066180;28;20174;-50
2022/04/07 04:26:28;;;;;;;1.83;1.17;;;15.90;55.50;17.10;98248.00;;;;5065075;28;20503;-49
2022/04/07 04:28:54;;;;;;;2.03;0.90;;;15.80;55.40;17.10;98251.00;;;;5066510;28;20177;-49
2022/04/07 04:31:20;;;;;;;2.17;1.27;;;15.80;55.40;17.10;98247.00;;;;5066360;28;20230;-50
2022/04/07 04:33:46;;;;;;;4.13;1.20;;;15.90;55.50;17.10;98242.00;;;;5066467;28;20185;-50
2022/04/07 04:36:11;;;;;;;1.20;1.10;;;15.80;55.40;17.10;98241.00;;;;5066369;28;20239;-50
2022/04/07 04:38:37;;;;;;;1.20;1.03;;;15.80;55.40;17.10;98227.00;;;;5066478;28;20560;-49
2022/04/07 04:41:03;;;;;;;4.03;1.23;;;15.80;55.40;17.10;98223.00;;;;5066314;28;20206;-48
2022/04/07 04:43:29;;;;;;;1.50;1.40;;;15.80;55.40;17.10;98225.00;;;;5066274;28;20157;-49
2022/04/07 04:45:54;;;;;;;3.33;1.10;;;15.90;55.50;17.10;98216.00;;;;5065634;28;20544;-50
2022/04/07 04:48:20;;;;;;;1.67;0.90;;;15.90;55.50;17.10;98218.00;;;;5066004;28;20174;-48
2022/04/07 04:50:46;;;;;;;2.73;1.30;;;15.90;55.50;17.10;98202.00;;;;5065973;28;20199;-49
2022/04/07 04:53:12;;;;;;;3.13;1.13;;;15.80;56.00;17.10;98198.00;;;;5065159;28;20242;-51
2022/04/07 04:55:38;;;;;;;2.53;1.17;;;15.80;55.40;17.10;98189.00;;;;5065994;28;20790;-49
2022/04/07 04:58:04;;;;;;;3.33;1.30;;;15.80;55.40;17.10;98188.00;;;;5065013;28;20169;-49
2022/04/07 05:00:29;;;;;;;2.70;1.20;;;15.80;55.50;17.10;98179.00;;;;5063107;28;20213;-49
2022/04/07 05:02:56;;;;;;;1.93;0.93;;;15.80;55.40;17.10;98175.00;;;;5065400;28;20220;-49
2022/04/07 05:05:22;;;;;;;2.30;1.20;;;15.80;55.40;17.10;98165.00;;;;5069079;28;20158;-49
2022/04/07 05:07:48;;;;;;;1.67;0.87;;;15.80;55.60;17.10;98161.00;;;;5069100;28;20789;-49
2022/04/07 05:10:13;;;;;;;1.77;0.90;;;15.80;55.70;17.10;98164.00;;;;5068961;28;20192;-49
2022/04/07 05:12:39;;;;;;;4.13;1.17;;;15.80;55.60;17.10;98153.00;;;;5068723;28;20181;-49
2022/04/07 05:15:07;;;;;;;2.77;1.50;;;15.80;55.60;17.00;98093.00;;;;5067862;28;20173;-50
2022/04/07 05:17:32;;;;;;;1.40;1.00;;;15.80;55.70;17.10;98143.00;;;;5069109;28;20174;-50
2022/04/07 05:19:58;;;;;;;1.20;1.00;;;15.80;55.40;17.10;98154.00;;;;5067453;28;20204;-50
2022/04/07 05:22:24;;;;;;;1.10;1.00;;;15.80;55.40;17.00;98156.00;;;;5068220;28;20562;-50
2022/04/07 05:24:50;;;;;;;0.80;0.80;;;15.80;55.40;17.00;98151.00;;;;5068344;28;20208;-50
2022/04/07 05:27:16;;;;;;;1.87;0.80;;;15.80;55.40;17.00;98144.00;;;;5068620;28;20521;-50
2022/04/07 05:29:42;;;;;;;1.67;0.97;;;15.80;55.40;17.00;98147.00;;;;5069189;28;20217;-50
2022/04/07 05:32:08;;;;;;;1.30;1.20;;;15.70;55.30;17.00;98132.00;;;;5068679;28;20187;-49
2022/04/07 05:34:34;;;;;;;0.90;0.90;;;15.80;55.40;17.00;98131.00;;;;5068406;28;20178;-49
2022/04/07 05:37:00;;;;;;;1.67;1.20;;;15.80;55.40;17.00;98121.00;;;;5069379;28;20219;-51
2022/04/07 05:39:25;;;;;;;0.70;0.70;;;15.70;55.30;17.00;98121.00;;;;5069278;28;20194;-50
2022/04/07 05:41:51;;;;;;;1.33;1.10;;;15.80;55.40;17.00;98129.00;;;;5068827;28;20197;-50
2022/04/07 05:44:17;;;;;;;1.77;0.87;;;15.70;55.30;17.00;98122.00;;;;5070998;28;20188;-49
2022/04/07 05:46:43;;;;;;;1.07;0.97;;;15.80;55.40;17.00;98115.00;;;;5075350;28;20174;-50
2022/04/07 05:49:10;;;;;;;1.10;1.00;;;15.70;55.30;17.00;98106.00;;;;5076651;28;20162;-50
2022/04/07 05:51:36;;;;;;;1.40;1.00;;;15.70;55.30;17.00;98106.00;;;;5068825;28;20186;-50
2022/04/07 05:54:02;;;;;;;1.10;1.10;;;15.70;55.30;17.00;98110.00;;;;5068225;28;20166;-50
2022/04/07 05:56:28;;;;;;;0.70;0.67;;;15.70;55.30;17.00;98096.00;;;;5068229;28;20239;-50
2022/04/07 05:58:54;;;;;;;1.37;1.00;;;15.70;55.30;17.00;98090.00;;;;5068379;28;20181;-50
2022/04/07 06:01:20;;;;;;;1.07;0.83;;;15.70;55.30;17.00;98086.00;;;;5067966;28;20217;-50
2022/04/07 06:03:46;;;;;;;0.83;0.83;;;15.70;55.30;17.00;98079.00;;;;5068272;28;20204;-50
2022/04/07 06:06:11;;;;;;;1.07;1.00;;;15.70;55.30;16.70;98074.00;;;;5071705;28;20811;-50
2022/04/07 06:08:37;;;;;;;0.80;0.80;;;15.70;55.30;16.90;98058.00;;;;5072390;28;20185;-50
2022/04/07 06:11:03;;;;;;;0.83;0.83;;;15.70;55.30;16.90;98056.00;;;;5071853;28;20243;-50
2022/04/07 06:13:28;;;;;;;0.80;0.80;;;15.70;55.30;16.90;98015.00;;;;5071634;28;20174;-51
2022/04/07 06:15:54;;;;;;;0.90;0.90;;;15.70;55.30;16.90;98052.00;;;;5070538;28;20177;-52
2022/04/07 06:18:20;;;;;;;1.10;1.10;;;15.70;55.30;16.90;98053.00;;;;5072087;28;20173;-49
2022/04/07 06:20:47;;;;;;;0.87;0.87;;;15.70;55.30;16.90;98055.00;;;;5071724;28;20247;-50
2022/04/07 06:23:13;;;;;;;0.90;0.90;;;15.60;55.30;16.90;98033.00;;;;5071582;28;20285;-50
2022/04/07 06:25:38;;;;;;;1.67;1.20;;;15.70;55.30;16.90;98038.00;;;;5070837;28;20197;-49
2022/04/07 06:28:04;;;;;;;1.07;1.00;;;15.70;55.60;16.90;98035.00;;;;5071234;28;20177;-49
2022/04/07 06:30:30;;;;;;;0.80;0.80;;;15.70;55.30;16.90;98029.00;;;;5071388;28;20197;-50
2022/04/07 06:32:56;;;;;;;0.93;0.87;;;15.70;55.30;16.90;98026.00;;;;5070960;28;20181;-49
2022/04/07 06:35:22;;;;;;;0.90;0.90;;;15.60;55.30;16.90;98010.00;;;;5070214;28;20184;-50
2022/04/07 06:37:54;;;;;;;1.30;1.03;;;15.70;55.30;16.90;97994.00;;;;5070903;28;20173;-49
2022/04/07 06:40:21;;;;;;;1.43;1.10;;;15.60;55.30;16.90;98002.00;;;;5071301;28;20197;-49
2022/04/07 06:42:48;;;;;;;1.83;1.20;;;15.60;55.30;16.90;97996.00;;;;5070965;28;20193;-50
2022/04/07 06:45:14;;;;;;;0.90;0.90;;;15.60;55.30;16.90;97991.00;;;;5071537;28;20665;-49
2022/04/07 06:47:40;;;;;;;1.20;1.10;;;15.60;55.20;16.90;97981.00;;;;5070906;28;20205;-50
2022/04/07 06:50:10;;;;;;;1.10;1.00;;;15.60;55.30;16.90;97972.00;;;;5071037;28;20190;-49
2022/04/07 06:52:36;;;;;;;1.23;1.13;;;15.60;55.30;16.90;97966.00;;;;5070247;28;20197;-50
2022/04/07 06:55:03;;;;;;;1.43;1.10;;;15.60;55.20;16.90;97947.00;;;;5070863;28;20205;-50
2022/04/07 06:57:29;;;;;;;0.93;0.93;;;15.60;55.30;16.80;97940.00;;;;5070904;28;20182;-50
2022/04/07 06:59:54;;;;;;;0.70;0.70;;;15.60;55.30;16.90;97947.00;;;;5070796;28;20198;-50
2022/04/07 07:02:20;;;;;;;0.93;0.93;;;15.60;55.20;16.90;97921.00;;;;5070639;28;20198;-50
2022/04/07 07:04:46;;;;;;;0.80;0.80;;;15.60;55.20;16.90;97917.00;;;;5069923;28;20185;-49
2022/04/07 07:07:11;;;;;;;0.80;0.80;;;15.60;55.30;16.90;97905.00;;;;5071201;28;20181;-49
2022/04/07 07:09:38;;;;;;;1.17;1.07;;;15.60;55.30;16.90;97888.00;;;;5072720;28;20201;-50
2022/04/07 07:12:04;;;;;;;1.10;1.10;;;15.60;55.40;16.80;97881.00;;;;5073194;28;20185;-50
2022/04/07 07:14:29;;;;;;;0.97;0.87;;;15.60;55.40;16.80;97889.00;;;;5072506;28;20189;-50
2022/04/07 07:16:55;;;;;;;1.10;0.97;;;15.60;55.60;16.80;97858.00;;;;5070633;28;20231;-50
2022/04/07 07:19:26;;;;;;;1.40;1.30;;;15.60;55.80;16.80;97859.00;;;;5070198;28;20216;-51
2022/04/07 07:21:53;;;;;;;2.37;1.30;;;15.60;56.10;16.80;97850.00;;;;5070840;28;20197;-50
2022/04/07 07:24:19;;;;;;;1.10;1.00;;;15.70;56.40;16.80;97834.00;;;;5070397;28;20169;-50
2022/04/07 07:26:45;;;;;;;2.20;1.10;;;15.90;56.20;16.90;97832.00;;;;5070380;28;20589;-50
2022/04/07 07:29:11;;;;;;;1.70;1.30;;;16.10;56.00;17.00;97825.00;;;;5070084;28;20242;-50
2022/04/07 07:31:36;;;;;;;3.37;1.30;;;16.30;55.80;17.10;97824.00;;;;5070099;28;20594;-49
2022/04/07 07:34:06;;;;;;;1.20;1.10;;;16.50;55.70;17.20;97812.00;;;;5069925;28;20252;-50
2022/04/07 07:36:31;;;;;;;1.57;1.30;;;16.80;55.40;17.40;97794.00;;;;5069995;28;20257;-50
2022/04/07 07:38:57;;;;;;;3.13;1.40;;;17.10;55.00;17.50;97789.00;;;;5069962;28;20184;-50
2022/04/07 07:41:23;;;;;;;0.97;0.97;;;17.40;54.80;17.70;97791.00;;;;5069927;28;20202;-50
2022/04/07 07:43:49;;;;;;;1.30;1.20;;;17.70;54.50;17.90;97772.00;;;;5069854;28;20253;-50
2022/04/07 07:46:16;;;;;;;2.10;1.20;;;18.00;54.20;18.10;97768.00;;;;5069447;28;20167;-49
2022/04/07 07:48:42;;;;;;;1.77;0.87;;;18.30;53.70;18.30;97767.00;;;;5069280;28;20155;-50
2022/04/07 07:51:08;;;;;;;1.20;1.10;;;18.50;53.60;18.40;97751.00;;;;5068874;28;20185;-50
2022/04/07 07:53:34;;;;;;;0.90;0.90;;;18.60;53.50;18.60;97761.00;;;;5069087;28;20224;-50
2022/04/07 07:55:59;;;;;;;1.00;0.90;;;18.70;53.50;18.70;97750.00;;;;5084972;28;20181;-49
2022/04/07 07:58:25;;;;;;;0.80;0.80;;;18.70;53.50;18.80;97732.00;;;;5069131;28;20177;-49
2022/04/07 08:00:51;;;;;;;2.80;1.37;;;18.80;53.70;18.90;97720.00;;;;5069852;28;20240;-50
2022/04/07 08:03:17;;;;;;;2.10;1.17;;;18.90;53.90;19.00;97713.00;;;;4905904;28;20665;-49
2022/04/07 08:05:42;;;;;;;2.43;1.30;;;18.80;54.30;19.10;97702.00;;;;5065508;28;20184;-50
2022/04/07 08:08:10;;;;;;;3.10;1.10;;;18.90;54.40;19.20;97692.00;;;;5067968;28;20815;-51
2022/04/07 08:10:36;;;;;;;2.00;1.03;;;19.00;54.40;19.20;97692.00;;;;5069275;28;20249;-49
2022/04/07 08:13:02;;;;;;;2.17;1.27;;;19.10;54.30;19.30;97679.00;;;;5068885;28;20185;-50
2022/04/07 08:15:28;;;;;;;1.10;1.00;;;19.10;54.20;19.40;97678.00;;;;5069102;28;20668;-49
2022/04/07 08:17:53;;;;;;;1.73;1.00;;;19.10;54.30;19.40;97670.00;;;;5069205;28;20168;-49
2022/04/07 08:20:19;;;;;;;1.10;1.00;;;19.10;54.50;19.50;97688.00;;;;5069021;28;20725;-49
2022/04/07 08:22:45;;;;;;;1.93;1.10;;;19.10;55.60;19.50;97686.00;;;;5064254;28;20208;-50
2022/04/07 08:25:11;;;;;;;6.70;1.30;;;19.10;55.10;19.50;97689.00;;;;5067912;28;20161;-49
2022/04/07 08:27:36;;;;;;;4.97;1.00;;;19.00;55.80;19.60;97686.00;;;;5067191;28;20246;-49
2022/04/07 08:30:03;;;;;;;0.90;0.90;;;19.10;56.50;19.60;97664.00;;;;5068508;28;20661;-50
2022/04/07 08:32:31;;;;;;;2.37;1.10;;;19.00;56.50;19.60;97674.00;;;;5068427;28;20309;-50
2022/04/07 08:34:58;;;;;;;2.30;1.00;;;19.00;56.40;19.60;97665.00;;;;5068455;28;20186;-50
2022/04/07 08:37:24;;;;;;;1.10;1.00;;;19.00;56.20;19.60;97663.00;;;;5067824;28;20698;-49
2022/04/07 08:39:51;;;;;;;2.47;1.20;;;19.00;56.20;19.60;97644.00;;;;5068473;28;20287;-50
2022/04/07 08:42:20;;;;;;;5.63;1.40;;;18.90;56.10;19.60;97630.00;;;;5068304;28;20213;-51
2022/04/07 08:44:47;;;;;;;3.30;1.10;;;18.90;56.20;19.60;97630.00;;;;5068251;28;20176;-51
2022/04/07 08:47:12;;;;;;;6.40;1.50;;;18.80;56.20;19.60;97619.00;;;;5068041;28;20169;-51
2022/04/07 08:49:38;;;;;;;9.30;1.60;;;18.90;56.30;19.60;97608.00;;;;5066885;28;20692;-51
2022/04/07 08:52:04;;;;;;;15.77;1.70;;;18.80;56.50;19.50;97608.00;;;;5049780;28;20185;-51
2022/04/07 08:54:30;;;;;;;11.40;1.70;;;18.80;56.60;19.50;97604.00;;;;5068309;28;20599;-50
2022/04/07 08:56:55;;;;;;;11.20;1.60;;;18.70;56.70;19.50;97620.00;;;;5067628;28;20243;-50
2022/04/07 08:59:21;;;;;;;7.93;1.63;;;18.70;56.70;19.50;97612.00;;;;5070154;28;20200;-50
2022/04/07 09:01:47;;;;;;;10.03;1.60;;;18.70;56.80;19.50;97607.00;;;;5067919;28;20213;-48
2022/04/07 09:04:13;;;;;;;10.60;1.80;;;18.60;56.80;19.50;97602.00;;;;4988754;28;20193;-50
2022/04/07 09:06:41;;;;;;;7.17;1.57;;;18.60;56.90;19.50;97594.00;;;;5069774;28;20660;-50
2022/04/07 09:09:18;;;;;;;6.63;1.57;;;18.60;56.90;19.50;97592.00;;;;5070556;28;20157;-50
2022/04/07 09:11:44;;;;;;;7.17;1.63;;;18.60;57.00;19.40;97588.00;;;;5069169;28;20670;-50
2022/04/07 09:14:10;;;;;;;8.33;1.47;;;18.60;57.20;19.40;97581.00;;;;5066942;28;20164;-49
2022/04/07 09:16:38;;;;;;;5.40;1.63;;;18.50;57.10;19.40;97575.00;;;;5067721;28;20242;-51
2022/04/07 09:19:04;;;;;;;6.00;1.50;;;18.50;57.10;19.40;97584.00;;;;5067910;28;20806;-49
2022/04/07 09:21:31;;;;;;;6.90;1.70;;;18.50;57.20;19.40;97566.00;;;;5067780;28;20197;-51
2022/04/07 09:23:58;;;;;;;3.10;1.37;;;18.40;57.10;19.40;97567.00;;;;5067742;28;20182;-50
2022/04/07 09:26:24;;;;;;;6.63;1.70;;;18.40;57.20;19.30;97579.00;;;;5066806;28;20178;-51
2022/04/07 09:28:50;;;;;;;6.60;1.40;;;18.40;57.20;19.30;97547.00;;;;5067714;28;20564;-51
2022/04/07 09:31:16;;;;;;;3.60;1.20;;;18.40;57.20;19.30;97556.00;;;;5049882;28;20602;-50
2022/04/07 09:33:42;;;;;;;3.70;1.30;;;18.30;57.20;19.30;97545.00;;;;5067848;28;20645;-50
2022/04/07 09:36:12;;;;;;;3.93;1.47;;;18.30;57.30;19.30;97541.00;;;;5067390;28;20184;-49
2022/04/07 09:38:38;;;;;;;6.60;1.30;;;18.30;57.60;19.30;97524.00;;;;5067670;28;20170;-50
2022/04/07 09:41:08;;;;;;;2.97;1.27;;;18.30;57.70;19.20;97518.00;;;;5072014;28;20192;-50
2022/04/07 09:43:58;;;;;;;4.20;1.13;;;18.30;57.70;19.20;97520.00;;;;5071992;28;20252;-50
2022/04/07 09:46:23;;;;;;;4.70;1.00;;;18.30;57.70;19.20;97558.00;;;;5072031;28;20164;-50
2022/04/07 09:49:09;;;;;;;1.30;1.00;;;18.20;57.90;19.20;97533.00;;;;5071526;28;20181;-49
2022/04/07 09:51:46;;;;;;;1.63;1.00;;;18.20;58.00;19.20;97531.00;;;;5053783;28;20160;-49
2022/04/07 09:54:13;;;;;;;4.30;1.10;;;18.20;57.90;19.10;97530.00;;;;5072078;28;20255;-49
2022/04/07 09:56:39;;;;;;;2.83;1.10;;;18.20;57.90;19.10;97536.00;;;;5071608;28;20173;-49
2022/04/07 09:59:06;;;;;;;4.53;1.50;;;18.20;57.90;19.10;97534.00;;;;5069418;28;20187;-49
2022/04/07 10:01:35;;;;;;;9.77;1.40;;;18.20;58.00;19.10;97523.00;;;;5069505;28;20809;-48
2022/04/07 10:04:02;;;;;;;6.07;1.47;;;18.20;58.00;19.10;97535.00;;;;4899160;28;20191;-50
2022/04/07 10:06:28;;;;;;;3.93;1.23;;;18.10;58.00;19.10;97546.00;;;;5069269;28;20246;-49
2022/04/07 10:08:54;;;;;;;5.03;1.40;;;18.10;57.90;19.10;97541.00;;;;5036474;28;20246;-49
2022/04/07 10:11:20;;;;;;;3.70;0.87;;;18.10;57.80;19.10;97551.00;;;;5052282;28;20175;-50
2022/04/07 10:13:46;;;;;;;3.73;1.23;;;18.10;57.90;19.10;97552.00;;;;5052716;28;20173;-49
2022/04/07 10:16:15;;;;;;;2.37;1.03;;;18.10;58.00;19.00;97550.00;;;;5069440;28;20236;-48
2022/04/07 10:18:47;;;;;;;5.80;1.57;;;18.00;58.00;19.00;97562.00;;;;5064619;28;20177;-51
2022/04/07 10:21:46;;;;;;;3.13;1.00;;;18.00;58.10;19.00;97563.00;;;;5049400;28;20225;-48
2022/04/07 10:24:46;;;;;;;1.30;1.00;;;18.00;58.00;19.00;97574.00;;;;5036235;28;20215;-49
2022/04/07 10:27:12;;;;;;;1.93;1.13;;;18.00;57.80;19.00;97570.00;;;;5037468;28;20191;-50
2022/04/07 10:29:38;;;;;;;3.57;1.27;;;18.20;57.40;19.00;97586.00;;;;5033496;28;20203;-50
2022/04/07 10:32:12;;;;;;;2.77;1.30;;;18.40;57.20;19.10;97573.00;;;;5064757;28;20675;-49
2022/04/07 10:34:58;;;;;;;3.63;1.07;;;18.70;56.70;19.30;97602.00;;;;5071233;28;20188;-48
2022/04/07 10:37:31;;;;;;;5.23;1.23;;;19.00;56.20;19.40;97599.00;;;;5069635;28;20554;-50
2022/04/07 10:39:56;;;;;;;1.93;1.00;;;19.30;55.50;19.60;97607.00;;;;5070925;28;20295;-49
2022/04/07 10:43:03;;;;;;;2.30;1.30;;;19.50;55.10;19.60;97617.00;;;;5071017;28;20197;-49
2022/04/07 10:45:38;;;;;;;3.23;1.10;;;19.70;54.90;19.90;97618.00;;;;5070127;28;20192;-50
2022/04/07 10:48:24;;;;;;;4.43;1.10;;;19.80;54.80;20.10;97630.00;;;;5071202;28;20169;-49
2022/04/07 10:51:12;;;;;;;1.90;1.10;;;19.90;54.70;20.10;97613.00;;;;5070376;28;20190;-50
2022/04/07 10:54:00;;;;;;;2.33;1.07;;;19.90;54.70;20.20;97621.00;;;;5070964;28;20768;-50